sensor_id;sensor_type;location;lat;lon;timestamp;pressure;altitude;pressure_sealevel;temperature;humidity
16355;BME280;8287;51.644;8.494;2023-11-19T00:02:22;99711.75;;;12.95;100.00
16355;BME280;8287;51.644;8.494;2023-11-19T00:04:49;99697.81;;;12.98;100.00
16355;BME280;8287;51.644;8.494;2023-11-19T00:07:15;99699.47;;;13.02;100.00
16355;BME280;8287;51.644;8.494;2023-11-19T00:09:42;99689.34;;;13.08;100.00
16355;BME280;8287;51.644;8.494;2023-11-19T00:12:09;99683.06;;;13.00;100.00
16355;BME280;8287;51.644;8.494;2023-11-19T00:14:35;99672.53;;;13.04;100.00
16355;BME280;8287;51.644;8.494;2023-11-19T00:17:02;99675.53;;;13.02;100.00
16355;BME280;8287;51.644;8.494;2023-11-19T00:19:30;99660.25;;;12.99;100.00
16355;BME280;8287;51.644;8.494;2023-11-19T00:21:57;99655.22;;;13.10;100.00
16355;BME280;8287;51.644;8.494;2023-11-19T00:24:27;99655.22;;;13.10;100.00
16355;BME280;8287;51.644;8.494;2023-11-19T00:26:54;99651.53;;;13.14;100.00
16355;BME280;8287;51.644;8.494;2023-11-19T00:29:21;99662.97;;;13.15;100.00
16355;BME280;8287;51.644;8.494;2023-11-19T00:31:48;99667.59;;;13.18;100.00
16355;BME280;8287;51.644;8.494;2023-11-19T00:34:15;99662.97;;;13.15;99.57
16355;BME280;8287;51.644;8.494;2023-11-19T00:36:43;99664.94;;;13.18;99.63
16355;BME280;8287;51.644;8.494;2023-11-19T00:39:10;99682.22;;;13.23;99.16
16355;BME280;8287;51.644;8.494;2023-11-19T00:41:36;99664.72;;;13.23;99.76
16355;BME280;8287;51.644;8.494;2023-11-19T00:44:03;99668.59;;;13.25;100.00
16355;BME280;8287;51.644;8.494;2023-11-19T00:46:30;99663.72;;;13.27;100.00
16355;BME280;8287;51.644;8.494;2023-11-19T00:48:57;99665.25;;;13.28;100.00
16355;BME280;8287;51.644;8.494;2023-11-19T00:51:26;99666.38;;;13.27;100.00
16355;BME280;8287;51.644;8.494;2023-11-19T00:53:54;99670.47;;;13.24;100.00
16355;BME280;8287;51.644;8.494;2023-11-19T00:56:20;99664.47;;;13.27;100.00
16355;BME280;8287;51.644;8.494;2023-11-19T00:58:47;99663.28;;;13.25;100.00
16355;BME280;8287;51.644;8.494;2023-11-19T01:01:14;99645.69;;;13.21;100.00
16355;BME280;8287;51.644;8.494;2023-11-19T01:03:40;99652.53;;;13.22;100.00
16355;BME280;8287;51.644;8.494;2023-11-19T01:06:07;99646.44;;;13.21;100.00
16355;BME280;8287;51.644;8.494;2023-11-19T01:08:34;99657.50;;;13.23;100.00
16355;BME280;8287;51.644;8.494;2023-11-19T01:11:03;99658.72;;;13.25;100.00
16355;BME280;8287;51.644;8.494;2023-11-19T01:13:29;99644.75;;;13.28;100.00
16355;BME280;8287;51.644;8.494;2023-11-19T01:15:56;99655.94;;;13.34;100.00
16355;BME280;8287;51.644;8.494;2023-11-19T01:18:22;99652.16;;;13.35;100.00
16355;BME280;8287;51.644;8.494;2023-11-19T01:20:49;99658.06;;;13.28;100.00
16355;BME280;8287;51.644;8.494;2023-11-19T01:23:16;99647.59;;;13.35;100.00
16355;BME280;8287;51.644;8.494;2023-11-19T01:25:42;99651.56;;;13.41;100.00
16355;BME280;8287;51.644;8.494;2023-11-19T01:28:10;99639.47;;;13.44;100.00
16355;BME280;8287;51.644;8.494;2023-11-19T01:30:37;99650.22;;;13.47;100.00
16355;BME280;8287;51.644;8.494;2023-11-19T01:33:03;99653.31;;;13.49;100.00
16355;BME280;8287;51.644;8.494;2023-11-19T01:35:30;99654.72;;;13.59;100.00
16355;BME280;8287;51.644;8.494;2023-11-19T01:37:56;99647.41;;;13.56;100.00
16355;BME280;8287;51.644;8.494;2023-11-19T01:40:23;99642.88;;;13.56;100.00
16355;BME280;8287;51.644;8.494;2023-11-19T01:42:49;99641.50;;;13.62;100.00
16355;BME280;8287;51.644;8.494;2023-11-19T01:45:24;99633.44;;;13.59;100.00
16355;BME280;8287;51.644;8.494;2023-11-19T01:47:53;99637.13;;;13.54;100.00
16355;BME280;8287;51.644;8.494;2023-11-19T01:50:20;99641.31;;;13.55;100.00
16355;BME280;8287;51.644;8.494;2023-11-19T01:52:47;99641.41;;;13.59;100.00
16355;BME280;8287;51.644;8.494;2023-11-19T01:55:14;99634.72;;;13.65;100.00
16355;BME280;8287;51.644;8.494;2023-11-19T01:57:41;99630.88;;;13.62;100.00
16355;BME280;8287;51.644;8.494;2023-11-19T02:00:08;99630.69;;;13.71;100.00
16355;BME280;8287;51.644;8.494;2023-11-19T02:02:38;99615.16;;;13.73;100.00
16355;BME280;8287;51.644;8.494;2023-11-19T02:05:06;99605.81;;;13.79;100.00
16355;BME280;8287;51.644;8.494;2023-11-19T02:07:32;99592.16;;;13.80;100.00
16355;BME280;8287;51.644;8.494;2023-11-19T02:09:59;99587.16;;;13.79;100.00
16355;BME280;8287;51.644;8.494;2023-11-19T02:12:27;99581.84;;;13.79;100.00
16355;BME280;8287;51.644;8.494;2023-11-19T02:14:54;99580.56;;;13.88;100.00
16355;BME280;8287;51.644;8.494;2023-11-19T02:17:27;99574.97;;;13.78;100.00
16355;BME280;8287;51.644;8.494;2023-11-19T02:19:55;99574.19;;;13.77;100.00
16355;BME280;8287;51.644;8.494;2023-11-19T02:22:22;99572.72;;;13.80;100.00
16355;BME280;8287;51.644;8.494;2023-11-19T02:24:51;99572.06;;;13.83;100.00
16355;BME280;8287;51.644;8.494;2023-11-19T02:27:27;99580.47;;;13.85;100.00
16355;BME280;8287;51.644;8.494;2023-11-19T02:29:58;99574.03;;;13.86;100.00
16355;BME280;8287;51.644;8.494;2023-11-19T02:32:27;99575.13;;;14.00;100.00
16355;BME280;8287;51.644;8.494;2023-11-19T02:34:53;99570.59;;;14.01;100.00
16355;BME280;8287;51.644;8.494;2023-11-19T02:37:20;99560.78;;;14.05;100.00
16355;BME280;8287;51.644;8.494;2023-11-19T02:39:47;99559.25;;;14.04;100.00
16355;BME280;8287;51.644;8.494;2023-11-19T02:42:13;99539.41;;;14.01;100.00
16355;BME280;8287;51.644;8.494;2023-11-19T02:44:43;99552.03;;;14.04;100.00
16355;BME280;8287;51.644;8.494;2023-11-19T02:47:11;99542.22;;;14.08;100.00
16355;BME280;8287;51.644;8.494;2023-11-19T02:49:38;99533.91;;;14.10;100.00
16355;BME280;8287;51.644;8.494;2023-11-19T02:52:07;99532.94;;;14.02;100.00
16355;BME280;8287;51.644;8.494;2023-11-19T02:54:35;99529.00;;;14.12;100.00
16355;BME280;8287;51.644;8.494;2023-11-19T02:57:02;99539.56;;;14.08;100.00
16355;BME280;8287;51.644;8.494;2023-11-19T02:59:30;99546.09;;;14.11;100.00
16355;BME280;8287;51.644;8.494;2023-11-19T03:02:04;99561.03;;;14.15;100.00
16355;BME280;8287;51.644;8.494;2023-11-19T03:04:33;99552.03;;;14.20;100.00
16355;BME280;8287;51.644;8.494;2023-11-19T03:07:00;99555.53;;;14.24;100.00
16355;BME280;8287;51.644;8.494;2023-11-19T03:09:27;99547.06;;;14.18;100.00
16355;BME280;8287;51.644;8.494;2023-11-19T03:11:54;99540.47;;;14.16;100.00
16355;BME280;8287;51.644;8.494;2023-11-19T03:14:21;99537.94;;;14.19;100.00
16355;BME280;8287;51.644;8.494;2023-11-19T03:16:48;99536.56;;;14.25;100.00
16355;BME280;8287;51.644;8.494;2023-11-19T03:19:15;99521.84;;;14.31;100.00
16355;BME280;8287;51.644;8.494;2023-11-19T03:21:43;99524.44;;;14.28;100.00
16355;BME280;8287;51.644;8.494;2023-11-19T03:24:10;99522.72;;;14.20;100.00
16355;BME280;8287;51.644;8.494;2023-11-19T03:26:36;99525.00;;;14.37;100.00
16355;BME280;8287;51.644;8.494;2023-11-19T03:29:03;99519.47;;;14.45;100.00
16355;BME280;8287;51.644;8.494;2023-11-19T03:31:30;99506.03;;;14.38;100.00
16355;BME280;8287;51.644;8.494;2023-11-19T03:33:56;99511.28;;;14.35;100.00
16355;BME280;8287;51.644;8.494;2023-11-19T03:36:23;99509.44;;;14.39;100.00
16355;BME280;8287;51.644;8.494;2023-11-19T03:38:51;99510.91;;;14.36;100.00
16355;BME280;8287;51.644;8.494;2023-11-19T03:41:18;99513.22;;;14.38;100.00
16355;BME280;8287;51.644;8.494;2023-11-19T03:43:44;99507.56;;;14.39;100.00
16355;BME280;8287;51.644;8.494;2023-11-19T03:46:18;99515.19;;;14.41;100.00
16355;BME280;8287;51.644;8.494;2023-11-19T03:48:44;99510.97;;;14.40;100.00
16355;BME280;8287;51.644;8.494;2023-11-19T03:51:12;99501.88;;;14.41;100.00
16355;BME280;8287;51.644;8.494;2023-11-19T03:53:41;99489.06;;;14.46;100.00
16355;BME280;8287;51.644;8.494;2023-11-19T03:56:09;99509.38;;;14.35;100.00
16355;BME280;8287;51.644;8.494;2023-11-19T03:58:36;99491.28;;;14.44;100.00
16355;BME280;8287;51.644;8.494;2023-11-19T04:01:03;99506.50;;;14.44;100.00
16355;BME280;8287;51.644;8.494;2023-11-19T04:03:30;99510.09;;;14.51;100.00
16355;BME280;8287;51.644;8.494;2023-11-19T04:05:57;99515.16;;;14.56;100.00
16355;BME280;8287;51.644;8.494;2023-11-19T04:08:24;99519.03;;;14.59;100.00
16355;BME280;8287;51.644;8.494;2023-11-19T04:10:51;99529.06;;;14.65;100.00
16355;BME280;8287;51.644;8.494;2023-11-19T04:13:18;99521.56;;;14.71;100.00
16355;BME280;8287;51.644;8.494;2023-11-19T04:15:45;99519.66;;;14.71;100.00
16355;BME280;8287;51.644;8.494;2023-11-19T04:18:12;99519.59;;;14.68;100.00
16355;BME280;8287;51.644;8.494;2023-11-19T04:20:39;99517.03;;;14.75;100.00
16355;BME280;8287;51.644;8.494;2023-11-19T04:23:07;99525.50;;;14.77;100.00
16355;BME280;8287;51.644;8.494;2023-11-19T04:25:35;99517.13;;;14.78;100.00
16355;BME280;8287;51.644;8.494;2023-11-19T04:28:01;99513.06;;;14.84;100.00
16355;BME280;8287;51.644;8.494;2023-11-19T04:30:30;99512.56;;;14.79;100.00
16355;BME280;8287;51.644;8.494;2023-11-19T04:32:57;99516.06;;;14.83;100.00
16355;BME280;8287;51.644;8.494;2023-11-19T04:35:23;99515.72;;;14.84;100.00
16355;BME280;8287;51.644;8.494;2023-11-19T04:37:51;99519.53;;;14.83;100.00
16355;BME280;8287;51.644;8.494;2023-11-19T04:40:18;99521.41;;;14.83;100.00
16355;BME280;8287;51.644;8.494;2023-11-19T04:42:47;99532.50;;;14.85;100.00
16355;BME280;8287;51.644;8.494;2023-11-19T04:45:14;99522.53;;;14.82;100.00
16355;BME280;8287;51.644;8.494;2023-11-19T04:47:42;99535.53;;;14.83;100.00
16355;BME280;8287;51.644;8.494;2023-11-19T04:50:09;99534.31;;;14.81;100.00
16355;BME280;8287;51.644;8.494;2023-11-19T04:52:37;99539.72;;;14.84;100.00
16355;BME280;8287;51.644;8.494;2023-11-19T04:55:06;99527.09;;;14.81;100.00
16355;BME280;8287;51.644;8.494;2023-11-19T04:57:33;99532.72;;;14.76;100.00
16355;BME280;8287;51.644;8.494;2023-11-19T04:59:59;99525.00;;;14.71;100.00
16355;BME280;8287;51.644;8.494;2023-11-19T05:02:26;99526.66;;;14.60;100.00
16355;BME280;8287;51.644;8.494;2023-11-19T05:04:54;99527.06;;;14.62;100.00
16355;BME280;8287;51.644;8.494;2023-11-19T05:07:20;99518.31;;;14.62;100.00
16355;BME280;8287;51.644;8.494;2023-11-19T05:09:47;99532.34;;;14.59;100.00
16355;BME280;8287;51.644;8.494;2023-11-19T05:12:14;99516.69;;;14.57;100.00
16355;BME280;8287;51.644;8.494;2023-11-19T05:14:41;99530.03;;;14.57;100.00
16355;BME280;8287;51.644;8.494;2023-11-19T05:17:13;99531.50;;;14.55;100.00
16355;BME280;8287;51.644;8.494;2023-11-19T05:19:40;99531.00;;;14.49;100.00
16355;BME280;8287;51.644;8.494;2023-11-19T05:22:08;99540.41;;;14.62;100.00
16355;BME280;8287;51.644;8.494;2023-11-19T05:24:35;99544.91;;;14.58;100.00
16355;BME280;8287;51.644;8.494;2023-11-19T05:27:01;99545.31;;;14.60;100.00
16355;BME280;8287;51.644;8.494;2023-11-19T05:29:28;99546.38;;;14.56;100.00
16355;BME280;8287;51.644;8.494;2023-11-19T05:31:55;99540.63;;;14.54;100.00
16355;BME280;8287;51.644;8.494;2023-11-19T05:34:21;99546.38;;;14.56;99.79
16355;BME280;8287;51.644;8.494;2023-11-19T05:36:48;99558.50;;;14.53;99.59
16355;BME280;8287;51.644;8.494;2023-11-19T05:39:16;99559.19;;;14.50;98.86
16355;BME280;8287;51.644;8.494;2023-11-19T05:41:43;99573.66;;;14.49;98.04
16355;BME280;8287;51.644;8.494;2023-11-19T05:44:10;99562.38;;;14.56;97.75
16355;BME280;8287;51.644;8.494;2023-11-19T05:46:37;99559.19;;;14.50;97.03
16355;BME280;8287;51.644;8.494;2023-11-19T05:49:07;99566.84;;;14.52;97.12
16355;BME280;8287;51.644;8.494;2023-11-19T05:51:36;99563.75;;;14.50;96.87
16355;BME280;8287;51.644;8.494;2023-11-19T05:54:04;99565.25;;;14.47;96.68
16355;BME280;8287;51.644;8.494;2023-11-19T05:56:33;99565.25;;;14.47;96.71
16355;BME280;8287;51.644;8.494;2023-11-19T05:59:00;99579.75;;;14.50;96.54
16355;BME280;8287;51.644;8.494;2023-11-19T06:01:28;99560.94;;;14.43;96.64
16355;BME280;8287;51.644;8.494;2023-11-19T06:03:55;99566.34;;;14.46;96.85
16355;BME280;8287;51.644;8.494;2023-11-19T06:06:22;99553.44;;;14.48;97.03
16355;BME280;8287;51.644;8.494;2023-11-19T06:08:49;99556.53;;;14.50;96.47
16355;BME280;8287;51.644;8.494;2023-11-19T06:11:16;99551.91;;;14.47;96.71
16355;BME280;8287;51.644;8.494;2023-11-19T06:13:47;99548.53;;;14.50;96.40
16355;BME280;8287;51.644;8.494;2023-11-19T06:16:15;99550.09;;;14.51;96.46
16355;BME280;8287;51.644;8.494;2023-11-19T06:18:42;99547.75;;;14.50;95.92
16355;BME280;8287;51.644;8.494;2023-11-19T06:21:09;99550.09;;;14.51;96.35
16355;BME280;8287;51.644;8.494;2023-11-19T06:23:36;99561.53;;;14.52;96.84
16355;BME280;8287;51.644;8.494;2023-11-19T06:26:04;99554.66;;;14.51;97.01
16355;BME280;8287;51.644;8.494;2023-11-19T06:28:31;99554.72;;;14.54;97.12
16355;BME280;8287;51.644;8.494;2023-11-19T06:30:59;99569.94;;;14.54;97.33
16355;BME280;8287;51.644;8.494;2023-11-19T06:33:26;99567.53;;;14.49;96.01
16355;BME280;8287;51.644;8.494;2023-11-19T06:35:53;99576.94;;;14.43;95.93
16355;BME280;8287;51.644;8.494;2023-11-19T06:38:20;99566.19;;;14.39;95.58
16355;BME280;8287;51.644;8.494;2023-11-19T06:40:47;99567.75;;;14.40;95.21
16355;BME280;8287;51.644;8.494;2023-11-19T06:43:13;99566.97;;;14.40;94.90
16355;BME280;8287;51.644;8.494;2023-11-19T06:45:41;99565.06;;;14.40;95.31
16355;BME280;8287;51.644;8.494;2023-11-19T06:48:09;99568.06;;;14.39;94.91
16355;BME280;8287;51.644;8.494;2023-11-19T06:50:35;99566.53;;;14.38;95.42
16355;BME280;8287;51.644;8.494;2023-11-19T06:53:02;99578.06;;;14.42;95.43
16355;BME280;8287;51.644;8.494;2023-11-19T06:55:30;99582.63;;;14.41;95.14
16355;BME280;8287;51.644;8.494;2023-11-19T06:57:59;99578.81;;;14.42;95.39
16355;BME280;8287;51.644;8.494;2023-11-19T07:00:27;99571.38;;;14.32;95.41
16355;BME280;8287;51.644;8.494;2023-11-19T07:02:54;99587.78;;;14.34;95.70
16355;BME280;8287;51.644;8.494;2023-11-19T07:05:22;99567.84;;;14.28;95.70
16355;BME280;8287;51.644;8.494;2023-11-19T07:07:49;99585.41;;;14.29;96.30
16355;BME280;8287;51.644;8.494;2023-11-19T07:10:16;99584.59;;;14.29;96.58
16355;BME280;8287;51.644;8.494;2023-11-19T07:12:43;99585.22;;;14.22;97.85
16355;BME280;8287;51.644;8.494;2023-11-19T07:15:10;99590.44;;;14.03;100.00
16355;BME280;8287;51.644;8.494;2023-11-19T07:17:38;99597.38;;;13.77;100.00
16355;BME280;8287;51.644;8.494;2023-11-19T07:20:06;99610.84;;;13.68;100.00
16355;BME280;8287;51.644;8.494;2023-11-19T07:22:34;99621.94;;;13.70;100.00
16355;BME280;8287;51.644;8.494;2023-11-19T07:25:04;99623.97;;;13.61;100.00
16355;BME280;8287;51.644;8.494;2023-11-19T07:27:31;99614.97;;;13.66;100.00
16355;BME280;8287;51.644;8.494;2023-11-19T07:29:57;99621.84;;;13.67;100.00
16355;BME280;8287;51.644;8.494;2023-11-19T07:32:24;99619.19;;;13.67;100.00
16355;BME280;8287;51.644;8.494;2023-11-19T07:34:50;99606.75;;;13.71;100.00
16355;BME280;8287;51.644;8.494;2023-11-19T07:37:17;99608.78;;;13.77;100.00
16355;BME280;8287;51.644;8.494;2023-11-19T07:39:45;99607.78;;;13.82;100.00
16355;BME280;8287;51.644;8.494;2023-11-19T07:42:12;99609.69;;;13.81;99.85
16355;BME280;8287;51.644;8.494;2023-11-19T07:44:38;99614.13;;;13.77;96.88
16355;BME280;8287;51.644;8.494;2023-11-19T07:47:05;99603.13;;;13.79;95.88
16355;BME280;8287;51.644;8.494;2023-11-19T07:49:31;99615.44;;;13.83;95.68
16355;BME280;8287;51.644;8.494;2023-11-19T07:51:58;99612.34;;;13.81;94.56
16355;BME280;8287;51.644;8.494;2023-11-19T07:54:25;99616.97;;;13.84;94.34
16355;BME280;8287;51.644;8.494;2023-11-19T07:56:53;99617.50;;;13.90;94.45
16355;BME280;8287;51.644;8.494;2023-11-19T07:59:20;99619.72;;;13.88;94.63
16355;BME280;8287;51.644;8.494;2023-11-19T08:01:47;99625.47;;;13.90;94.75
16355;BME280;8287;51.644;8.494;2023-11-19T08:04:14;99625.66;;;13.97;94.90
16355;BME280;8287;51.644;8.494;2023-11-19T08:06:40;99631.78;;;13.97;95.23
16355;BME280;8287;51.644;8.494;2023-11-19T08:09:07;99631.16;;;14.04;95.04
16355;BME280;8287;51.644;8.494;2023-11-19T08:11:39;99632.88;;;14.12;94.27
16355;BME280;8287;51.644;8.494;2023-11-19T08:14:07;99636.59;;;14.07;93.46
16355;BME280;8287;51.644;8.494;2023-11-19T08:16:33;99648.97;;;14.15;93.52
16355;BME280;8287;51.644;8.494;2023-11-19T08:19:02;99653.41;;;14.11;92.26
16355;BME280;8287;51.644;8.494;2023-11-19T08:21:29;99648.97;;;14.15;92.11
16355;BME280;8287;51.644;8.494;2023-11-19T08:23:56;99643.56;;;14.12;92.46
16355;BME280;8287;51.644;8.494;2023-11-19T08:26:22;99650.84;;;14.15;91.58
16355;BME280;8287;51.644;8.494;2023-11-19T08:28:49;99660.50;;;14.19;91.72
16355;BME280;8287;51.644;8.494;2023-11-19T08:31:18;99672.22;;;14.30;91.14
16355;BME280;8287;51.644;8.494;2023-11-19T08:33:45;99663.94;;;14.35;90.47
16355;BME280;8287;51.644;8.494;2023-11-19T08:36:15;99666.53;;;14.32;90.13
16355;BME280;8287;51.644;8.494;2023-11-19T08:38:42;99666.88;;;14.30;89.96
16355;BME280;8287;51.644;8.494;2023-11-19T08:41:08;99662.69;;;14.29;89.97
16355;BME280;8287;51.644;8.494;2023-11-19T08:43:35;99672.31;;;14.34;89.59
16355;BME280;8287;51.644;8.494;2023-11-19T08:46:02;99667.72;;;14.34;89.66
16355;BME280;8287;51.644;8.494;2023-11-19T08:48:30;99668.44;;;14.31;89.99
16355;BME280;8287;51.644;8.494;2023-11-19T08:50:57;99672.38;;;14.37;89.40
16355;BME280;8287;51.644;8.494;2023-11-19T08:53:24;99675.47;;;14.39;89.57
16355;BME280;8287;51.644;8.494;2023-11-19T08:55:50;99666.34;;;14.40;89.26
16355;BME280;8287;51.644;8.494;2023-11-19T08:58:17;99671.88;;;14.47;89.53
16355;BME280;8287;51.644;8.494;2023-11-19T09:00:44;99681.13;;;14.53;88.89
16355;BME280;8287;51.644;8.494;2023-11-19T09:03:11;99682.63;;;14.51;88.49
16355;BME280;8287;51.644;8.494;2023-11-19T09:05:39;99677.28;;;14.51;89.36
16355;BME280;8287;51.644;8.494;2023-11-19T09:08:06;99697.72;;;14.47;88.58
16355;BME280;8287;51.644;8.494;2023-11-19T09:10:33;99688.09;;;14.42;88.40
16355;BME280;8287;51.644;8.494;2023-11-19T09:13:00;99684.22;;;14.40;89.22
16355;BME280;8287;51.644;8.494;2023-11-19T09:15:27;99699.09;;;14.41;89.00
16355;BME280;8287;51.644;8.494;2023-11-19T09:17:54;99694.38;;;14.34;89.32
16355;BME280;8287;51.644;8.494;2023-11-19T09:20:21;99695.75;;;14.28;88.49
16355;BME280;8287;51.644;8.494;2023-11-19T09:22:49;99695.69;;;14.40;88.34
16355;BME280;8287;51.644;8.494;2023-11-19T09:25:16;99695.84;;;14.47;88.76
16355;BME280;8287;51.644;8.494;2023-11-19T09:27:43;99700.81;;;14.49;88.26
16355;BME280;8287;51.644;8.494;2023-11-19T09:30:10;99702.44;;;14.53;88.17
16355;BME280;8287;51.644;8.494;2023-11-19T09:32:38;99705.91;;;14.54;88.09
16355;BME280;8287;51.644;8.494;2023-11-19T09:35:05;99700.25;;;14.55;87.88
16355;BME280;8287;51.644;8.494;2023-11-19T09:37:32;99701.25;;;14.66;88.17
16355;BME280;8287;51.644;8.494;2023-11-19T09:40:00;99700.47;;;14.66;87.59
16355;BME280;8287;51.644;8.494;2023-11-19T09:42:26;99698.13;;;14.80;87.58
16355;BME280;8287;51.644;8.494;2023-11-19T09:44:54;99699.94;;;14.91;87.67
16355;BME280;8287;51.644;8.494;2023-11-19T09:47:23;99700.44;;;14.97;87.45
16355;BME280;8287;51.644;8.494;2023-11-19T09:49:52;99700.09;;;14.98;86.10
16355;BME280;8287;51.644;8.494;2023-11-19T09:52:19;99714.81;;;14.92;86.99
16355;BME280;8287;51.644;8.494;2023-11-19T09:54:46;99706.38;;;14.90;87.17
16355;BME280;8287;51.644;8.494;2023-11-19T09:57:15;99702.59;;;14.91;86.56
16355;BME280;8287;51.644;8.494;2023-11-19T09:59:43;99698.81;;;14.92;86.73
16355;BME280;8287;51.644;8.494;2023-11-19T10:02:12;99705.28;;;14.91;86.33
16355;BME280;8287;51.644;8.494;2023-11-19T10:04:39;99705.53;;;14.86;85.86
16355;BME280;8287;51.644;8.494;2023-11-19T10:07:09;99697.53;;;14.86;86.52
16355;BME280;8287;51.644;8.494;2023-11-19T10:09:36;99700.88;;;14.83;86.89
16355;BME280;8287;51.644;8.494;2023-11-19T10:12:03;99692.19;;;14.86;87.29
16355;BME280;8287;51.644;8.494;2023-11-19T10:14:31;99687.31;;;14.88;86.07
16355;BME280;8287;51.644;8.494;2023-11-19T10:17:01;99690.13;;;14.80;87.23
16355;BME280;8287;51.644;8.494;2023-11-19T10:19:29;99689.00;;;14.81;86.64
16355;BME280;8287;51.644;8.494;2023-11-19T10:21:56;99684.09;;;14.83;86.34
16355;BME280;8287;51.644;8.494;2023-11-19T10:24:31;99684.31;;;14.74;85.91
16355;BME280;8287;51.644;8.494;2023-11-19T10:26:59;99692.06;;;14.79;86.10
16355;BME280;8287;51.644;8.494;2023-11-19T10:29:26;99682.94;;;14.80;85.76
16355;BME280;8287;51.644;8.494;2023-11-19T10:31:58;99686.03;;;14.67;85.98
16355;BME280;8287;51.644;8.494;2023-11-19T10:34:26;99675.50;;;14.89;86.02
16355;BME280;8287;51.644;8.494;2023-11-19T10:36:53;99673.25;;;14.91;85.44
16355;BME280;8287;51.644;8.494;2023-11-19T10:39:19;99680.72;;;15.01;85.27
16355;BME280;8287;51.644;8.494;2023-11-19T10:41:49;99681.56;;;15.05;84.91
16355;BME280;8287;51.644;8.494;2023-11-19T10:44:31;99666.16;;;14.99;84.37
16355;BME280;8287;51.644;8.494;2023-11-19T10:47:00;99673.75;;;14.97;83.93
16355;BME280;8287;51.644;8.494;2023-11-19T10:49:26;99668.75;;;14.95;84.44
16355;BME280;8287;51.644;8.494;2023-11-19T10:51:55;99672.47;;;14.91;83.66
16355;BME280;8287;51.644;8.494;2023-11-19T10:54:22;99677.03;;;14.90;84.32
16355;BME280;8287;51.644;8.494;2023-11-19T10:56:54;99669.72;;;14.87;83.85
16355;BME280;8287;51.644;8.494;2023-11-19T10:59:21;99676.69;;;14.92;84.93
16355;BME280;8287;51.644;8.494;2023-11-19T11:01:50;99667.59;;;14.93;85.12
16355;BME280;8287;51.644;8.494;2023-11-19T11:04:23;99667.13;;;14.91;85.62
16355;BME280;8287;51.644;8.494;2023-11-19T11:06:51;99668.75;;;14.95;85.68
16355;BME280;8287;51.644;8.494;2023-11-19T11:09:18;99672.63;;;14.98;85.78
16355;BME280;8287;51.644;8.494;2023-11-19T11:11:46;99673.00;;;14.96;85.29
16355;BME280;8287;51.644;8.494;2023-11-19T11:14:14;99666.00;;;14.92;85.59
16355;BME280;8287;51.644;8.494;2023-11-19T11:16:42;99657.97;;;14.73;87.04
16355;BME280;8287;51.644;8.494;2023-11-19T11:19:09;99660.13;;;14.67;88.66
16355;BME280;8287;51.644;8.494;2023-11-19T11:21:39;99655.94;;;14.66;89.05
16355;BME280;8287;51.644;8.494;2023-11-19T11:24:23;99657.03;;;14.50;89.11
16355;BME280;8287;51.644;8.494;2023-11-19T11:27:14;99644.50;;;14.50;89.41
16355;BME280;8287;51.644;8.494;2023-11-19T11:29:55;99644.75;;;14.45;89.84
16355;BME280;8287;51.644;8.494;2023-11-19T11:32:33;99643.31;;;14.48;90.62
16355;BME280;8287;51.644;8.494;2023-11-19T11:35:26;99647.16;;;14.50;90.88
16355;BME280;8287;51.644;8.494;2023-11-19T11:38:01;99649.75;;;14.47;90.50
16355;BME280;8287;51.644;8.494;2023-11-19T11:40:29;99643.31;;;14.48;90.15
16355;BME280;8287;51.644;8.494;2023-11-19T11:42:56;99651.81;;;14.53;90.57
16355;BME280;8287;51.644;8.494;2023-11-19T11:45:35;99636.44;;;14.47;90.26
16355;BME280;8287;51.644;8.494;2023-11-19T11:48:09;99639.88;;;14.47;90.34
16355;BME280;8287;51.644;8.494;2023-11-19T11:50:53;99637.97;;;14.48;90.24
16355;BME280;8287;51.644;8.494;2023-11-19T11:53:22;99633.69;;;14.43;89.29
16355;BME280;8287;51.644;8.494;2023-11-19T11:55:57;99636.09;;;14.48;88.19
16355;BME280;8287;51.644;8.494;2023-11-19T11:58:35;99620.75;;;14.45;88.61
16355;BME280;8287;51.644;8.494;2023-11-19T12:01:04;99630.94;;;14.55;88.37
16355;BME280;8287;51.644;8.494;2023-11-19T12:03:32;99637.97;;;14.63;88.09
16355;BME280;8287;51.644;8.494;2023-11-19T12:05:59;99645.09;;;14.59;86.79
16355;BME280;8287;51.644;8.494;2023-11-19T12:08:28;99642.34;;;14.56;86.90
16355;BME280;8287;51.644;8.494;2023-11-19T12:10:57;99647.84;;;14.63;87.05
16355;BME280;8287;51.644;8.494;2023-11-19T12:13:26;99643.00;;;14.68;87.53
16355;BME280;8287;51.644;8.494;2023-11-19T12:16:08;99646.31;;;14.62;87.14
16355;BME280;8287;51.644;8.494;2023-11-19T12:18:38;99648.19;;;14.61;86.88
16355;BME280;8287;51.644;8.494;2023-11-19T12:21:05;99634.84;;;14.61;88.55
16355;BME280;8287;51.644;8.494;2023-11-19T12:23:45;99632.63;;;14.63;90.18
16355;BME280;8287;51.644;8.494;2023-11-19T12:26:33;99625.06;;;14.65;91.06
16355;BME280;8287;51.644;8.494;2023-11-19T12:29:00;99630.19;;;14.74;92.21
16355;BME280;8287;51.644;8.494;2023-11-19T12:31:29;99623.50;;;14.64;90.99
16355;BME280;8287;51.644;8.494;2023-11-19T12:33:56;99617.22;;;14.72;90.98
16355;BME280;8287;51.644;8.494;2023-11-19T12:36:22;99616.25;;;14.80;89.73
16355;BME280;8287;51.644;8.494;2023-11-19T12:38:50;99615.94;;;15.01;89.70
16355;BME280;8287;51.644;8.494;2023-11-19T12:41:17;99607.28;;;15.26;89.75
16355;BME280;8287;51.644;8.494;2023-11-19T12:43:47;99603.66;;;15.34;87.22
16355;BME280;8287;51.644;8.494;2023-11-19T12:46:17;99596.50;;;15.38;86.33
16355;BME280;8287;51.644;8.494;2023-11-19T12:48:45;99587.28;;;15.36;85.46
16355;BME280;8287;51.644;8.494;2023-11-19T12:51:12;99591.19;;;15.42;86.25
16355;BME280;8287;51.644;8.494;2023-11-19T12:53:48;99585.09;;;15.41;85.48
16355;BME280;8287;51.644;8.494;2023-11-19T12:56:16;99578.09;;;15.33;84.35
16355;BME280;8287;51.644;8.494;2023-11-19T12:58:43;99575.25;;;15.26;85.50
16355;BME280;8287;51.644;8.494;2023-11-19T13:01:15;99586.00;;;15.30;84.99
16355;BME280;8287;51.644;8.494;2023-11-19T13:03:42;99583.78;;;15.32;84.09
16355;BME280;8287;51.644;8.494;2023-11-19T13:06:11;99586.09;;;15.33;84.72
16355;BME280;8287;51.644;8.494;2023-11-19T13:08:39;99578.34;;;15.28;83.95
16355;BME280;8287;51.644;8.494;2023-11-19T13:11:06;99578.34;;;15.28;83.94